sensor_id;sensor_type;location;lat;lon;timestamp;P1;durP1;ratioP1;P2;durP2;ratioP2
3343;SDS011;1685;53.104;8.228;2022-10-31T00:00:14;59.80;;;30.17;;
3343;SDS011;1685;53.104;8.228;2022-10-31T00:02:41;69.43;;;32.37;;
3343;SDS011;1685;53.104;8.228;2022-10-31T00:05:09;49.20;;;27.60;;
3343;SDS011;1685;53.104;8.228;2022-10-31T00:07:36;65.47;;;29.57;;
3343;SDS011;1685;53.104;8.228;2022-10-31T00:10:04;54.87;;;30.60;;
3343;SDS011;1685;53.104;8.228;2022-10-31T00:12:31;55.70;;;30.10;;
3343;SDS011;1685;53.104;8.228;2022-10-31T00:14:58;54.83;;;30.33;;
3343;SDS011;1685;53.104;8.228;2022-10-31T00:17:25;53.17;;;29.23;;
3343;SDS011;1685;53.104;8.228;2022-10-31T00:19:52;58.30;;;29.10;;
3343;SDS011;1685;53.104;8.228;2022-10-31T00:22:20;58.40;;;31.80;;
3343;SDS011;1685;53.104;8.228;2022-10-31T00:24:47;61.47;;;30.13;;
3343;SDS011;1685;53.104;8.228;2022-10-31T00:27:14;56.90;;;28.33;;
3343;SDS011;1685;53.104;8.228;2022-10-31T00:29:41;70.03;;;30.93;;
3343;SDS011;1685;53.104;8.228;2022-10-31T00:32:08;62.93;;;29.07;;
3343;SDS011;1685;53.104;8.228;2022-10-31T00:34:35;53.93;;;28.83;;
3343;SDS011;1685;53.104;8.228;2022-10-31T00:37:02;58.57;;;31.33;;
3343;SDS011;1685;53.104;8.228;2022-10-31T00:39:30;58.67;;;29.60;;
3343;SDS011;1685;53.104;8.228;2022-10-31T00:41:57;62.50;;;30.83;;
3343;SDS011;1685;53.104;8.228;2022-10-31T00:44:24;55.33;;;32.67;;
3343;SDS011;1685;53.104;8.228;2022-10-31T00:46:51;57.33;;;30.90;;
3343;SDS011;1685;53.104;8.228;2022-10-31T00:49:18;61.07;;;29.40;;
3343;SDS011;1685;53.104;8.228;2022-10-31T00:51:45;64.50;;;31.23;;
3343;SDS011;1685;53.104;8.228;2022-10-31T00:54:12;65.60;;;32.40;;
3343;SDS011;1685;53.104;8.228;2022-10-31T00:56:41;56.07;;;28.83;;
3343;SDS011;1685;53.104;8.228;2022-10-31T00:59:07;56.03;;;29.10;;
3343;SDS011;1685;53.104;8.228;2022-10-31T01:01:34;54.70;;;31.20;;
3343;SDS011;1685;53.104;8.228;2022-10-31T01:04:01;58.40;;;29.20;;
3343;SDS011;1685;53.104;8.228;2022-10-31T01:06:28;48.00;;;29.33;;
3343;SDS011;1685;53.104;8.228;2022-10-31T01:08:55;55.87;;;27.60;;
3343;SDS011;1685;53.104;8.228;2022-10-31T01:11:22;53.73;;;30.77;;
3343;SDS011;1685;53.104;8.228;2022-10-31T01:13:51;45.50;;;29.67;;
3343;SDS011;1685;53.104;8.228;2022-10-31T01:16:20;49.23;;;29.03;;
3343;SDS011;1685;53.104;8.228;2022-10-31T01:18:48;49.77;;;28.77;;
3343;SDS011;1685;53.104;8.228;2022-10-31T01:21:16;46.20;;;26.40;;
3343;SDS011;1685;53.104;8.228;2022-10-31T01:23:44;45.60;;;28.53;;
3343;SDS011;1685;53.104;8.228;2022-10-31T01:26:12;41.00;;;26.97;;
3343;SDS011;1685;53.104;8.228;2022-10-31T01:28:43;50.60;;;27.23;;
3343;SDS011;1685;53.104;8.228;2022-10-31T01:31:13;48.50;;;27.03;;
3343;SDS011;1685;53.104;8.228;2022-10-31T01:33:40;48.67;;;28.03;;
3343;SDS011;1685;53.104;8.228;2022-10-31T01:36:13;56.43;;;31.87;;
3343;SDS011;1685;53.104;8.228;2022-10-31T01:38:42;52.80;;;29.53;;
3343;SDS011;1685;53.104;8.228;2022-10-31T01:41:10;63.43;;;31.77;;
3343;SDS011;1685;53.104;8.228;2022-10-31T01:43:42;53.20;;;29.80;;
3343;SDS011;1685;53.104;8.228;2022-10-31T01:46:10;61.37;;;32.10;;
3343;SDS011;1685;53.104;8.228;2022-10-31T01:48:38;58.63;;;30.50;;
3343;SDS011;1685;53.104;8.228;2022-10-31T01:51:06;63.87;;;33.13;;
3343;SDS011;1685;53.104;8.228;2022-10-31T01:53:34;59.63;;;30.90;;
3343;SDS011;1685;53.104;8.228;2022-10-31T01:56:02;60.40;;;31.27;;
3343;SDS011;1685;53.104;8.228;2022-10-31T01:58:29;63.43;;;30.30;;
3343;SDS011;1685;53.104;8.228;2022-10-31T02:00:58;62.73;;;30.03;;
3343;SDS011;1685;53.104;8.228;2022-10-31T02:03:26;57.30;;;30.60;;
3343;SDS011;1685;53.104;8.228;2022-10-31T02:05:55;51.70;;;29.23;;
3343;SDS011;1685;53.104;8.228;2022-10-31T02:08:25;49.50;;;29.43;;
3343;SDS011;1685;53.104;8.228;2022-10-31T02:10:54;63.50;;;33.87;;
3343;SDS011;1685;53.104;8.228;2022-10-31T02:13:21;57.03;;;28.97;;
3343;SDS011;1685;53.104;8.228;2022-10-31T02:15:51;72.30;;;31.77;;
3343;SDS011;1685;53.104;8.228;2022-10-31T02:18:19;67.83;;;31.70;;
3343;SDS011;1685;53.104;8.228;2022-10-31T02:20:48;59.63;;;30.80;;
3343;SDS011;1685;53.104;8.228;2022-10-31T02:26:41;48.80;;;27.80;;
3343;SDS011;1685;53.104;8.228;2022-10-31T02:29:25;46.07;;;26.63;;
3343;SDS011;1685;53.104;8.228;2022-10-31T02:32:16;61.70;;;30.73;;
3343;SDS011;1685;53.104;8.228;2022-10-31T02:34:48;52.23;;;30.47;;
3343;SDS011;1685;53.104;8.228;2022-10-31T02:37:23;46.67;;;26.30;;
3343;SDS011;1685;53.104;8.228;2022-10-31T02:39:56;51.50;;;27.47;;
3343;SDS011;1685;53.104;8.228;2022-10-31T02:42:32;43.90;;;29.10;;
3343;SDS011;1685;53.104;8.228;2022-10-31T02:45:05;53.47;;;28.43;;
3343;SDS011;1685;53.104;8.228;2022-10-31T02:47:37;45.50;;;27.57;;
3343;SDS011;1685;53.104;8.228;2022-10-31T02:50:06;51.70;;;24.47;;
3343;SDS011;1685;53.104;8.228;2022-10-31T02:52:36;45.20;;;27.40;;
3343;SDS011;1685;53.104;8.228;2022-10-31T02:55:10;45.23;;;25.50;;
3343;SDS011;1685;53.104;8.228;2022-10-31T02:57:39;45.97;;;24.40;;
3343;SDS011;1685;53.104;8.228;2022-10-31T03:00:08;52.53;;;26.17;;
3343;SDS011;1685;53.104;8.228;2022-10-31T03:02:43;58.57;;;26.20;;
3343;SDS011;1685;53.104;8.228;2022-10-31T03:05:28;45.30;;;25.83;;
3343;SDS011;1685;53.104;8.228;2022-10-31T03:08:08;51.73;;;26.73;;
3343;SDS011;1685;53.104;8.228;2022-10-31T03:10:41;60.90;;;27.20;;
3343;SDS011;1685;53.104;8.228;2022-10-31T03:13:15;59.23;;;28.63;;
3343;SDS011;1685;53.104;8.228;2022-10-31T03:15:48;54.97;;;26.20;;
3343;SDS011;1685;53.104;8.228;2022-10-31T03:18:19;45.03;;;26.77;;
3343;SDS011;1685;53.104;8.228;2022-10-31T03:20:52;45.40;;;26.07;;
3343;SDS011;1685;53.104;8.228;2022-10-31T03:23:22;57.23;;;25.80;;
3343;SDS011;1685;53.104;8.228;2022-10-31T03:25:50;55.53;;;26.37;;
3343;SDS011;1685;53.104;8.228;2022-10-31T03:28:19;46.73;;;26.47;;
3343;SDS011;1685;53.104;8.228;2022-10-31T03:30:49;59.37;;;29.40;;
3343;SDS011;1685;53.104;8.228;2022-10-31T03:33:20;47.70;;;25.00;;
3343;SDS011;1685;53.104;8.228;2022-10-31T03:35:50;56.23;;;28.30;;
3343;SDS011;1685;53.104;8.228;2022-10-31T03:38:20;58.20;;;25.77;;
3343;SDS011;1685;53.104;8.228;2022-10-31T03:40:48;47.37;;;25.70;;
3343;SDS011;1685;53.104;8.228;2022-10-31T03:43:19;65.03;;;28.70;;
3343;SDS011;1685;53.104;8.228;2022-10-31T03:45:50;49.30;;;27.20;;
3343;SDS011;1685;53.104;8.228;2022-10-31T03:48:17;63.77;;;26.10;;
3343;SDS011;1685;53.104;8.228;2022-10-31T03:50:49;41.57;;;25.70;;
3343;SDS011;1685;53.104;8.228;2022-10-31T03:53:24;45.10;;;23.93;;
3343;SDS011;1685;53.104;8.228;2022-10-31T03:55:57;36.93;;;23.80;;
3343;SDS011;1685;53.104;8.228;2022-10-31T03:58:29;38.27;;;25.77;;
3343;SDS011;1685;53.104;8.228;2022-10-31T04:01:03;33.03;;;24.07;;
3343;SDS011;1685;53.104;8.228;2022-10-31T04:03:34;32.53;;;23.30;;
3343;SDS011;1685;53.104;8.228;2022-10-31T04:06:04;33.03;;;24.23;;
3343;SDS011;1685;53.104;8.228;2022-10-31T04:08:37;34.87;;;23.97;;
3343;SDS011;1685;53.104;8.228;2022-10-31T04:11:07;38.57;;;23.00;;
3343;SDS011;1685;53.104;8.228;2022-10-31T04:13:35;33.57;;;24.00;;
3343;SDS011;1685;53.104;8.228;2022-10-31T04:16:04;30.03;;;23.20;;
3343;SDS011;1685;53.104;8.228;2022-10-31T04:18:32;24.80;;;20.23;;
3343;SDS011;1685;53.104;8.228;2022-10-31T04:21:01;32.17;;;22.23;;
3343;SDS011;1685;53.104;8.228;2022-10-31T04:23:29;29.97;;;23.57;;
3343;SDS011;1685;53.104;8.228;2022-10-31T04:25:56;31.20;;;22.33;;
3343;SDS011;1685;53.104;8.228;2022-10-31T04:28:23;30.83;;;23.70;;
3343;SDS011;1685;53.104;8.228;2022-10-31T04:30:50;29.60;;;22.63;;
3343;SDS011;1685;53.104;8.228;2022-10-31T04:33:17;34.23;;;23.47;;
3343;SDS011;1685;53.104;8.228;2022-10-31T04:35:45;37.90;;;25.20;;
3343;SDS011;1685;53.104;8.228;2022-10-31T04:38:13;36.57;;;22.70;;
3343;SDS011;1685;53.104;8.228;2022-10-31T04:40:40;54.00;;;24.80;;
3343;SDS011;1685;53.104;8.228;2022-10-31T04:43:07;32.43;;;23.10;;
3343;SDS011;1685;53.104;8.228;2022-10-31T04:45:34;30.03;;;23.57;;
3343;SDS011;1685;53.104;8.228;2022-10-31T04:48:01;32.80;;;24.80;;
3343;SDS011;1685;53.104;8.228;2022-10-31T04:50:28;37.70;;;26.53;;
3343;SDS011;1685;53.104;8.228;2022-10-31T04:52:55;35.20;;;24.77;;
3343;SDS011;1685;53.104;8.228;2022-10-31T04:55:23;38.70;;;26.83;;
3343;SDS011;1685;53.104;8.228;2022-10-31T04:57:50;82.00;;;28.07;;
3343;SDS011;1685;53.104;8.228;2022-10-31T05:00:18;40.60;;;26.60;;
3343;SDS011;1685;53.104;8.228;2022-10-31T05:02:46;35.20;;;26.60;;
3343;SDS011;1685;53.104;8.228;2022-10-31T05:05:14;36.97;;;24.83;;
3343;SDS011;1685;53.104;8.228;2022-10-31T05:07:42;38.97;;;26.30;;
3343;SDS011;1685;53.104;8.228;2022-10-31T05:10:10;41.77;;;29.57;;
3343;SDS011;1685;53.104;8.228;2022-10-31T05:12:46;39.10;;;27.73;;
3343;SDS011;1685;53.104;8.228;2022-10-31T05:15:13;45.73;;;28.80;;
3343;SDS011;1685;53.104;8.228;2022-10-31T05:17:41;65.80;;;30.63;;
3343;SDS011;1685;53.104;8.228;2022-10-31T05:20:08;42.70;;;28.27;;
3343;SDS011;1685;53.104;8.228;2022-10-31T05:22:35;42.77;;;29.40;;
3343;SDS011;1685;53.104;8.228;2022-10-31T05:25:02;71.33;;;27.33;;
3343;SDS011;1685;53.104;8.228;2022-10-31T05:27:29;76.87;;;29.70;;
3343;SDS011;1685;53.104;8.228;2022-10-31T05:29:58;72.90;;;30.20;;
3343;SDS011;1685;53.104;8.228;2022-10-31T05:32:24;72.27;;;28.90;;
3343;SDS011;1685;53.104;8.228;2022-10-31T05:34:51;128.90;;;29.20;;
3343;SDS011;1685;53.104;8.228;2022-10-31T05:37:18;101.77;;;28.47;;
3343;SDS011;1685;53.104;8.228;2022-10-31T05:39:45;59.77;;;27.37;;
3343;SDS011;1685;53.104;8.228;2022-10-31T05:42:12;41.77;;;29.27;;
3343;SDS011;1685;53.104;8.228;2022-10-31T05:44:40;77.53;;;28.93;;
3343;SDS011;1685;53.104;8.228;2022-10-31T05:47:08;63.53;;;31.10;;
3343;SDS011;1685;53.104;8.228;2022-10-31T05:49:35;40.60;;;28.03;;
3343;SDS011;1685;53.104;8.228;2022-10-31T05:52:02;48.50;;;29.87;;
3343;SDS011;1685;53.104;8.228;2022-10-31T05:54:29;46.10;;;29.37;;
3343;SDS011;1685;53.104;8.228;2022-10-31T05:56:56;86.27;;;31.10;;
3343;SDS011;1685;53.104;8.228;2022-10-31T05:59:23;52.40;;;29.23;;
3343;SDS011;1685;53.104;8.228;2022-10-31T06:01:50;49.17;;;31.50;;
3343;SDS011;1685;53.104;8.228;2022-10-31T06:04:19;79.60;;;32.60;;
3343;SDS011;1685;53.104;8.228;2022-10-31T06:06:46;53.57;;;29.27;;
3343;SDS011;1685;53.104;8.228;2022-10-31T06:09:13;53.80;;;30.37;;
3343;SDS011;1685;53.104;8.228;2022-10-31T06:11:40;60.87;;;31.53;;
3343;SDS011;1685;53.104;8.228;2022-10-31T06:14:07;99.00;;;31.60;;
3343;SDS011;1685;53.104;8.228;2022-10-31T06:16:34;45.07;;;30.63;;
3343;SDS011;1685;53.104;8.228;2022-10-31T06:19:01;113.10;;;30.60;;
3343;SDS011;1685;53.104;8.228;2022-10-31T06:21:29;46.70;;;30.13;;
3343;SDS011;1685;53.104;8.228;2022-10-31T06:23:56;54.90;;;29.53;;
3343;SDS011;1685;53.104;8.228;2022-10-31T06:26:23;39.20;;;30.60;;
3343;SDS011;1685;53.104;8.228;2022-10-31T06:28:50;40.80;;;30.43;;
3343;SDS011;1685;53.104;8.228;2022-10-31T06:31:17;55.23;;;29.20;;
3343;SDS011;1685;53.104;8.228;2022-10-31T06:33:44;53.87;;;29.73;;
3343;SDS011;1685;53.104;8.228;2022-10-31T06:36:11;56.73;;;31.13;;
3343;SDS011;1685;53.104;8.228;2022-10-31T06:38:40;55.17;;;31.10;;
3343;SDS011;1685;53.104;8.228;2022-10-31T06:41:06;48.13;;;32.57;;
3343;SDS011;1685;53.104;8.228;2022-10-31T06:43:33;46.23;;;31.00;;
3343;SDS011;1685;53.104;8.228;2022-10-31T06:46:01;40.17;;;29.47;;
3343;SDS011;1685;53.104;8.228;2022-10-31T06:48:29;49.73;;;32.63;;
3343;SDS011;1685;53.104;8.228;2022-10-31T06:50:57;47.40;;;32.00;;
3343;SDS011;1685;53.104;8.228;2022-10-31T06:53:24;53.77;;;32.70;;
3343;SDS011;1685;53.104;8.228;2022-10-31T06:55:52;47.60;;;30.70;;
3343;SDS011;1685;53.104;8.228;2022-10-31T06:58:19;43.60;;;29.67;;
3343;SDS011;1685;53.104;8.228;2022-10-31T07:00:46;53.83;;;31.70;;
3343;SDS011;1685;53.104;8.228;2022-10-31T07:03:13;47.13;;;30.77;;
3343;SDS011;1685;53.104;8.228;2022-10-31T07:05:41;48.00;;;32.00;;
3343;SDS011;1685;53.104;8.228;2022-10-31T07:08:09;46.53;;;30.90;;
3343;SDS011;1685;53.104;8.228;2022-10-31T07:10:37;47.90;;;31.20;;
3343;SDS011;1685;53.104;8.228;2022-10-31T07:13:09;50.23;;;30.97;;
3343;SDS011;1685;53.104;8.228;2022-10-31T07:15:38;43.37;;;31.20;;
3343;SDS011;1685;53.104;8.228;2022-10-31T07:18:07;50.30;;;32.50;;
3343;SDS011;1685;53.104;8.228;2022-10-31T07:20:35;49.80;;;30.73;;
3343;SDS011;1685;53.104;8.228;2022-10-31T07:23:02;49.10;;;31.90;;
3343;SDS011;1685;53.104;8.228;2022-10-31T07:25:29;50.40;;;32.40;;
3343;SDS011;1685;53.104;8.228;2022-10-31T07:27:56;46.30;;;31.57;;
3343;SDS011;1685;53.104;8.228;2022-10-31T07:30:25;64.33;;;31.27;;
3343;SDS011;1685;53.104;8.228;2022-10-31T07:32:51;70.47;;;32.53;;
3343;SDS011;1685;53.104;8.228;2022-10-31T07:35:20;48.20;;;31.50;;
3343;SDS011;1685;53.104;8.228;2022-10-31T07:37:48;52.80;;;35.20;;
3343;SDS011;1685;53.104;8.228;2022-10-31T07:40:16;51.33;;;32.67;;
3343;SDS011;1685;53.104;8.228;2022-10-31T07:42:44;53.70;;;35.37;;
3343;SDS011;1685;53.104;8.228;2022-10-31T07:45:12;51.67;;;32.60;;
3343;SDS011;1685;53.104;8.228;2022-10-31T07:47:41;54.00;;;33.30;;
3343;SDS011;1685;53.104;8.228;2022-10-31T07:50:10;125.50;;;36.10;;
3343;SDS011;1685;53.104;8.228;2022-10-31T07:52:40;61.60;;;31.87;;
3343;SDS011;1685;53.104;8.228;2022-10-31T07:55:07;78.87;;;33.70;;
3343;SDS011;1685;53.104;8.228;2022-10-31T07:57:34;84.10;;;33.07;;
3343;SDS011;1685;53.104;8.228;2022-10-31T08:00:02;41.10;;;30.27;;
3343;SDS011;1685;53.104;8.228;2022-10-31T08:02:30;61.33;;;34.43;;
3343;SDS011;1685;53.104;8.228;2022-10-31T08:04:59;51.13;;;31.30;;
3343;SDS011;1685;53.104;8.228;2022-10-31T08:07:27;55.43;;;33.40;;
3343;SDS011;1685;53.104;8.228;2022-10-31T08:09:54;55.80;;;30.20;;
3343;SDS011;1685;53.104;8.228;2022-10-31T08:12:21;53.37;;;30.73;;
3343;SDS011;1685;53.104;8.228;2022-10-31T08:14:48;52.63;;;28.77;;
3343;SDS011;1685;53.104;8.228;2022-10-31T08:17:15;73.97;;;31.37;;
3343;SDS011;1685;53.104;8.228;2022-10-31T08:19:42;58.53;;;31.60;;
3343;SDS011;1685;53.104;8.228;2022-10-31T08:22:11;63.67;;;30.77;;
3343;SDS011;1685;53.104;8.228;2022-10-31T08:24:37;52.43;;;32.03;;
3343;SDS011;1685;53.104;8.228;2022-10-31T08:27:04;65.00;;;31.37;;
3343;SDS011;1685;53.104;8.228;2022-10-31T08:29:32;130.43;;;30.53;;
3343;SDS011;1685;53.104;8.228;2022-10-31T08:31:59;68.97;;;31.97;;
3343;SDS011;1685;53.104;8.228;2022-10-31T08:34:26;154.17;;;33.73;;
3343;SDS011;1685;53.104;8.228;2022-10-31T08:36:53;90.97;;;33.97;;
3343;SDS011;1685;53.104;8.228;2022-10-31T08:39:21;38.93;;;29.67;;
3343;SDS011;1685;53.104;8.228;2022-10-31T08:41:48;87.23;;;31.97;;
3343;SDS011;1685;53.104;8.228;2022-10-31T08:44:16;43.00;;;30.30;;
3343;SDS011;1685;53.104;8.228;2022-10-31T08:46:42;45.10;;;32.13;;
3343;SDS011;1685;53.104;8.228;2022-10-31T08:49:09;45.67;;;30.77;;
3343;SDS011;1685;53.104;8.228;2022-10-31T08:51:37;61.67;;;32.43;;
3343;SDS011;1685;53.104;8.228;2022-10-31T08:54:04;51.40;;;30.77;;
3343;SDS011;1685;53.104;8.228;2022-10-31T08:56:32;46.33;;;30.30;;
3343;SDS011;1685;53.104;8.228;2022-10-31T08:58:59;50.70;;;33.80;;
3343;SDS011;1685;53.104;8.228;2022-10-31T09:01:26;50.47;;;33.07;;
3343;SDS011;1685;53.104;8.228;2022-10-31T09:03:53;51.50;;;32.90;;
3343;SDS011;1685;53.104;8.228;2022-10-31T09:06:20;51.53;;;31.77;;
3343;SDS011;1685;53.104;8.228;2022-10-31T09:08:47;53.90;;;34.00;;
3343;SDS011;1685;53.104;8.228;2022-10-31T09:11:14;47.23;;;31.30;;
3343;SDS011;1685;53.104;8.228;2022-10-31T09:13:42;54.63;;;35.53;;
3343;SDS011;1685;53.104;8.228;2022-10-31T09:16:09;58.13;;;36.40;;
3343;SDS011;1685;53.104;8.228;2022-10-31T09:18:36;50.50;;;36.13;;
3343;SDS011;1685;53.104;8.228;2022-10-31T09:21:03;54.90;;;34.33;;
3343;SDS011;1685;53.104;8.228;2022-10-31T09:23:30;54.47;;;34.03;;
3343;SDS011;1685;53.104;8.228;2022-10-31T09:25:58;46.60;;;31.07;;
3343;SDS011;1685;53.104;8.228;2022-10-31T09:28:26;50.40;;;32.03;;
3343;SDS011;1685;53.104;8.228;2022-10-31T09:30:54;54.97;;;34.90;;
3343;SDS011;1685;53.104;8.228;2022-10-31T09:33:21;54.30;;;33.87;;
3343;SDS011;1685;53.104;8.228;2022-10-31T09:35:48;60.50;;;34.10;;
3343;SDS011;1685;53.104;8.228;2022-10-31T09:38:16;53.37;;;29.73;;
3343;SDS011;1685;53.104;8.228;2022-10-31T09:40:45;43.47;;;30.77;;
3343;SDS011;1685;53.104;8.228;2022-10-31T09:43:15;50.10;;;31.10;;
3343;SDS011;1685;53.104;8.228;2022-10-31T09:45:53;45.50;;;33.13;;
3343;SDS011;1685;53.104;8.228;2022-10-31T09:48:30;46.10;;;30.43;;
3343;SDS011;1685;53.104;8.228;2022-10-31T09:51:05;49.07;;;33.10;;
3343;SDS011;1685;53.104;8.228;2022-10-31T09:53:36;44.73;;;31.10;;
3343;SDS011;1685;53.104;8.228;2022-10-31T09:56:06;49.43;;;31.60;;
3343;SDS011;1685;53.104;8.228;2022-10-31T09:58:38;42.57;;;29.77;;
3343;SDS011;1685;53.104;8.228;2022-10-31T10:01:11;41.70;;;29.97;;
3343;SDS011;1685;53.104;8.228;2022-10-31T10:03:49;41.80;;;29.43;;
3343;SDS011;1685;53.104;8.228;2022-10-31T10:06:21;47.27;;;30.40;;
3343;SDS011;1685;53.104;8.228;2022-10-31T10:08:50;48.80;;;31.73;;
3343;SDS011;1685;53.104;8.228;2022-10-31T10:11:24;50.77;;;32.67;;
3343;SDS011;1685;53.104;8.228;2022-10-31T10:14:20;41.53;;;30.40;;
3343;SDS011;1685;53.104;8.228;2022-10-31T10:17:11;50.53;;;33.20;;
3343;SDS011;1685;53.104;8.228;2022-10-31T10:22:53;50.10;;;32.07;;
3343;SDS011;1685;53.104;8.228;2022-10-31T10:25:28;47.83;;;31.47;;
3343;SDS011;1685;53.104;8.228;2022-10-31T10:28:03;47.20;;;31.40;;
3343;SDS011;1685;53.104;8.228;2022-10-31T10:30:40;50.70;;;32.97;;
3343;SDS011;1685;53.104;8.228;2022-10-31T10:33:11;56.53;;;33.70;;
3343;SDS011;1685;53.104;8.228;2022-10-31T10:35:41;52.30;;;35.50;;
3343;SDS011;1685;53.104;8.228;2022-10-31T10:38:14;50.60;;;32.93;;
3343;SDS011;1685;53.104;8.228;2022-10-31T10:40:44;50.53;;;32.90;;
3343;SDS011;1685;53.104;8.228;2022-10-31T10:43:17;50.47;;;33.03;;
3343;SDS011;1685;53.104;8.228;2022-10-31T10:45:48;53.00;;;33.33;;
3343;SDS011;1685;53.104;8.228;2022-10-31T10:48:39;48.57;;;31.27;;
3343;SDS011;1685;53.104;8.228;2022-10-31T10:51:12;52.80;;;34.07;;
3343;SDS011;1685;53.104;8.228;2022-10-31T10:53:48;53.00;;;34.97;;
3343;SDS011;1685;53.104;8.228;2022-10-31T10:56:32;57.10;;;34.40;;
3343;SDS011;1685;53.104;8.228;2022-10-31T10:59:07;54.10;;;32.13;;
3343;SDS011;1685;53.104;8.228;2022-10-31T11:01:37;61.77;;;33.37;;
3343;SDS011;1685;53.104;8.228;2022-10-31T11:04:14;54.13;;;32.60;;
3343;SDS011;1685;53.104;8.228;2022-10-31T11:07:00;53.00;;;31.57;;
3343;SDS011;1685;53.104;8.228;2022-10-31T11:09:30;54.90;;;33.27;;
3343;SDS011;1685;53.104;8.228;2022-10-31T11:11:57;45.30;;;31.13;;
3343;SDS011;1685;53.104;8.228;2022-10-31T11:14:25;46.43;;;30.73;;
3343;SDS011;1685;53.104;8.228;2022-10-31T11:16:54;49.03;;;30.93;;
3343;SDS011;1685;53.104;8.228;2022-10-31T11:19:33;46.17;;;29.17;;
3343;SDS011;1685;53.104;8.228;2022-10-31T11:22:05;41.40;;;26.90;;
3343;SDS011;1685;53.104;8.228;2022-10-31T11:24:35;54.60;;;29.63;;
3343;SDS011;1685;53.104;8.228;2022-10-31T11:27:09;47.33;;;26.53;;
3343;SDS011;1685;53.104;8.228;2022-10-31T11:29:40;45.50;;;26.90;;
3343;SDS011;1685;53.104;8.228;2022-10-31T11:32:08;52.77;;;27.30;;
3343;SDS011;1685;53.104;8.228;2022-10-31T11:34:47;50.90;;;26.90;;
3343;SDS011;1685;53.104;8.228;2022-10-31T11:37:18;46.37;;;26.80;;
3343;SDS011;1685;53.104;8.228;2022-10-31T11:39:49;44.33;;;27.10;;
3343;SDS011;1685;53.104;8.228;2022-10-31T11:42:19;46.53;;;24.50;;
3343;SDS011;1685;53.104;8.228;2022-10-31T11:44:48;46.73;;;24.63;;
3343;SDS011;1685;53.104;8.228;2022-10-31T11:47:17;41.90;;;23.60;;
3343;SDS011;1685;53.104;8.228;2022-10-31T11:49:50;43.77;;;24.17;;
3343;SDS011;1685;53.104;8.228;2022-10-31T11:52:19;44.90;;;24.23;;
3343;SDS011;1685;53.104;8.228;2022-10-31T11:54:48;39.90;;;24.40;;
3343;SDS011;1685;53.104;8.228;2022-10-31T11:57:25;46.97;;;24.47;;
3343;SDS011;1685;53.104;8.228;2022-10-31T11:59:54;38.87;;;23.53;;
3343;SDS011;1685;53.104;8.228;2022-10-31T12:02:23;47.83;;;25.43;;
3343;SDS011;1685;53.104;8.228;2022-10-31T12:04:54;46.60;;;24.97;;
3343;SDS011;1685;53.104;8.228;2022-10-31T12:07:26;43.23;;;21.90;;
3343;SDS011;1685;53.104;8.228;2022-10-31T12:09:54;40.67;;;21.37;;
3343;SDS011;1685;53.104;8.228;2022-10-31T12:12:27;41.07;;;24.70;;
3343;SDS011;1685;53.104;8.228;2022-10-31T12:15:17;38.37;;;24.83;;
3343;SDS011;1685;53.104;8.228;2022-10-31T12:17:56;35.20;;;22.57;;
3343;SDS011;1685;53.104;8.228;2022-10-31T12:20:54;39.30;;;23.33;;
3343;SDS011;1685;53.104;8.228;2022-10-31T12:23:34;36.00;;;22.00;;
3343;SDS011;1685;53.104;8.228;2022-10-31T12:26:12;34.87;;;21.87;;
3343;SDS011;1685;53.104;8.228;2022-10-31T12:28:47;44.60;;;22.87;;
3343;SDS011;1685;53.104;8.228;2022-10-31T12:31:26;38.73;;;22.20;;
3343;SDS011;1685;53.104;8.228;2022-10-31T12:34:04;40.27;;;21.57;;
3343;SDS011;1685;53.104;8.228;2022-10-31T12:36:51;31.57;;;20.97;;
3343;SDS011;1685;53.104;8.228;2022-10-31T12:39:30;34.70;;;22.10;;
3343;SDS011;1685;53.104;8.228;2022-10-31T12:42:08;32.67;;;22.33;;
3343;SDS011;1685;53.104;8.228;2022-10-31T12:44:52;30.83;;;23.10;;
3343;SDS011;1685;53.104;8.228;2022-10-31T12:47:57;41.73;;;22.43;;
3343;SDS011;1685;53.104;8.228;2022-10-31T12:50:43;34.23;;;22.07;;
3343;SDS011;1685;53.104;8.228;2022-10-31T12:53:23;33.70;;;20.47;;
3343;SDS011;1685;53.104;8.228;2022-10-31T12:56:06;25.90;;;17.70;;
3343;SDS011;1685;53.104;8.228;2022-10-31T12:58:43;27.57;;;18.60;;
3343;SDS011;1685;53.104;8.228;2022-10-31T13:01:14;30.80;;;19.53;;
3343;SDS011;1685;53.104;8.228;2022-10-31T13:03:46;29.20;;;18.40;;
3343;SDS011;1685;53.104;8.228;2022-10-31T13:06:18;26.97;;;17.17;;
3343;SDS011;1685;53.104;8.228;2022-10-31T13:08:49;28.20;;;16.40;;
3343;SDS011;1685;53.104;8.228;2022-10-31T13:11:19;21.87;;;16.40;;
3343;SDS011;1685;53.104;8.228;2022-10-31T13:13:53;29.10;;;15.40;;
3343;SDS011;1685;53.104;8.228;2022-10-31T13:16:28;25.50;;;15.37;;
3343;SDS011;1685;53.104;8.228;2022-10-31T13:19:01;20.03;;;14.80;;
3343;SDS011;1685;53.104;8.228;2022-10-31T13:21:35;22.90;;;15.07;;
3343;SDS011;1685;53.104;8.228;2022-10-31T13:24:07;23.90;;;16.07;;
3343;SDS011;1685;53.104;8.228;2022-10-31T13:26:40;23.30;;;16.10;;
3343;SDS011;1685;53.104;8.228;2022-10-31T13:29:13;26.27;;;16.30;;
3343;SDS011;1685;53.104;8.228;2022-10-31T13:31:44;29.80;;;15.70;;
3343;SDS011;1685;53.104;8.228;2022-10-31T13:34:16;25.37;;;15.83;;
3343;SDS011;1685;53.104;8.228;2022-10-31T13:36:50;29.40;;;17.60;;
3343;SDS011;1685;53.104;8.228;2022-10-31T13:39:27;27.60;;;18.27;;
3343;SDS011;1685;53.104;8.228;2022-10-31T13:42:08;25.43;;;18.00;;
3343;SDS011;1685;53.104;8.228;2022-10-31T13:44:41;30.43;;;17.60;;
3343;SDS011;1685;53.104;8.228;2022-10-31T13:47:21;28.37;;;17.30;;
3343;SDS011;1685;53.104;8.228;2022-10-31T13:49:51;30.00;;;17.93;;
3343;SDS011;1685;53.104;8.228;2022-10-31T13:52:30;31.27;;;19.83;;
3343;SDS011;1685;53.104;8.228;2022-10-31T13:54:58;35.30;;;19.80;;
3343;SDS011;1685;53.104;8.228;2022-10-31T13:57:28;30.97;;;18.70;;
3343;SDS011;1685;53.104;8.228;2022-10-31T13:59:58;31.70;;;18.50;;
3343;SDS011;1685;53.104;8.228;2022-10-31T14:02:27;29.90;;;17.37;;
3343;SDS011;1685;53.104;8.228;2022-10-31T14:04:56;26.33;;;17.30;;
3343;SDS011;1685;53.104;8.228;2022-10-31T14:07:25;31.30;;;18.50;;
3343;SDS011;1685;53.104;8.228;2022-10-31T14:09:55;30.40;;;17.20;;
3343;SDS011;1685;53.104;8.228;2022-10-31T14:12:28;27.23;;;17.37;;
3343;SDS011;1685;53.104;8.228;2022-10-31T14:14:58;27.30;;;17.23;;
3343;SDS011;1685;53.104;8.228;2022-10-31T14:17:29;33.20;;;18.50;;
3343;SDS011;1685;53.104;8.228;2022-10-31T14:20:21;26.70;;;17.30;;
3343;SDS011;1685;53.104;8.228;2022-10-31T14:22:51;29.63;;;16.97;;
3343;SDS011;1685;53.104;8.228;2022-10-31T14:25:28;32.63;;;18.57;;
3343;SDS011;1685;53.104;8.228;2022-10-31T14:27:59;29.97;;;18.53;;
3343;SDS011;1685;53.104;8.228;2022-10-31T14:30:27;33.13;;;19.40;;
3343;SDS011;1685;53.104;8.228;2022-10-31T14:32:57;38.97;;;21.10;;
3343;SDS011;1685;53.104;8.228;2022-10-31T14:35:28;30.70;;;21.90;;
3343;SDS011;1685;53.104;8.228;2022-10-31T14:38:14;39.90;;;23.53;;
3343;SDS011;1685;53.104;8.228;2022-10-31T14:41:02;41.23;;;24.73;;
3343;SDS011;1685;53.104;8.228;2022-10-31T14:43:49;48.40;;;26.57;;
3343;SDS011;1685;53.104;8.228;2022-10-31T14:46:33;41.60;;;26.77;;
3343;SDS011;1685;53.104;8.228;2022-10-31T14:49:15;42.90;;;28.60;;
3343;SDS011;1685;53.104;8.228;2022-10-31T14:51:51;50.83;;;31.80;;
3343;SDS011;1685;53.104;8.228;2022-10-31T14:54:19;47.33;;;29.87;;
3343;SDS011;1685;53.104;8.228;2022-10-31T14:56:51;48.53;;;30.63;;
3343;SDS011;1685;53.104;8.228;2022-10-31T14:59:24;55.20;;;33.87;;
3343;SDS011;1685;53.104;8.228;2022-10-31T15:01:56;48.97;;;31.97;;
3343;SDS011;1685;53.104;8.228;2022-10-31T15:04:25;52.33;;;30.90;;
3343;SDS011;1685;53.104;8.228;2022-10-31T15:06:57;54.57;;;32.80;;
3343;SDS011;1685;53.104;8.228;2022-10-31T15:09:27;50.30;;;29.80;;
3343;SDS011;1685;53.104;8.228;2022-10-31T15:11:55;55.40;;;31.93;;
3343;SDS011;1685;53.104;8.228;2022-10-31T15:14:25;56.07;;;31.57;;